sensor_id;sensor_type;location;lat;lon;timestamp;P1;durP1;ratioP1;P2;durP2;ratioP2
40931;SDS011;36257;46.052;12.540;2023-02-28T00:00:25;10.05;;;9.15;;
40931;SDS011;36257;46.052;12.540;2023-02-28T00:02:51;9.90;;;8.90;;
40931;SDS011;36257;46.052;12.540;2023-02-28T00:05:18;9.73;;;8.83;;
40931;SDS011;36257;46.052;12.540;2023-02-28T00:07:45;10.30;;;9.50;;
40931;SDS011;36257;46.052;12.540;2023-02-28T00:10:12;11.43;;;10.43;;
40931;SDS011;36257;46.052;12.540;2023-02-28T00:12:40;10.60;;;9.60;;
40931;SDS011;36257;46.052;12.540;2023-02-28T00:15:06;11.03;;;9.87;;
40931;SDS011;36257;46.052;12.540;2023-02-28T00:17:36;10.00;;;9.00;;
40931;SDS011;36257;46.052;12.540;2023-02-28T00:20:02;9.87;;;9.00;;
40931;SDS011;36257;46.052;12.540;2023-02-28T00:22:32;10.53;;;9.50;;
40931;SDS011;36257;46.052;12.540;2023-02-28T00:24:58;11.03;;;9.90;;
40931;SDS011;36257;46.052;12.540;2023-02-28T00:27:24;9.73;;;9.00;;
40931;SDS011;36257;46.052;12.540;2023-02-28T00:29:50;9.97;;;9.07;;
40931;SDS011;36257;46.052;12.540;2023-02-28T00:32:15;9.60;;;8.53;;
40931;SDS011;36257;46.052;12.540;2023-02-28T00:34:41;11.27;;;9.30;;
40931;SDS011;36257;46.052;12.540;2023-02-28T00:37:07;11.07;;;9.00;;
40931;SDS011;36257;46.052;12.540;2023-02-28T00:42:00;12.50;;;9.03;;
40931;SDS011;36257;46.052;12.540;2023-02-28T00:44:27;9.90;;;9.10;;
40931;SDS011;36257;46.052;12.540;2023-02-28T00:46:53;10.63;;;9.60;;
40931;SDS011;36257;46.052;12.540;2023-02-28T00:49:19;10.50;;;9.50;;
40931;SDS011;36257;46.052;12.540;2023-02-28T00:51:45;10.13;;;9.23;;
40931;SDS011;36257;46.052;12.540;2023-02-28T00:54:11;10.73;;;9.23;;
40931;SDS011;36257;46.052;12.540;2023-02-28T00:56:37;13.10;;;10.73;;
40931;SDS011;36257;46.052;12.540;2023-02-28T00:59:03;9.77;;;8.77;;
40931;SDS011;36257;46.052;12.540;2023-02-28T01:01:28;9.10;;;8.40;;
40931;SDS011;36257;46.052;12.540;2023-02-28T01:03:54;9.53;;;8.67;;
40931;SDS011;36257;46.052;12.540;2023-02-28T01:06:20;10.27;;;9.30;;
40931;SDS011;36257;46.052;12.540;2023-02-28T01:08:45;9.80;;;8.97;;
40931;SDS011;36257;46.052;12.540;2023-02-28T01:11:12;12.23;;;9.97;;
40931;SDS011;36257;46.052;12.540;2023-02-28T01:13:39;10.40;;;9.40;;
40931;SDS011;36257;46.052;12.540;2023-02-28T01:16:06;10.03;;;9.20;;
40931;SDS011;36257;46.052;12.540;2023-02-28T01:18:32;10.77;;;9.63;;
40931;SDS011;36257;46.052;12.540;2023-02-28T01:20:58;9.87;;;8.93;;
40931;SDS011;36257;46.052;12.540;2023-02-28T01:23:27;9.63;;;8.83;;
40931;SDS011;36257;46.052;12.540;2023-02-28T01:25:53;9.70;;;8.83;;
40931;SDS011;36257;46.052;12.540;2023-02-28T01:28:19;9.67;;;8.83;;
40931;SDS011;36257;46.052;12.540;2023-02-28T01:30:51;8.63;;;7.93;;
40931;SDS011;36257;46.052;12.540;2023-02-28T01:33:16;10.07;;;9.17;;
40931;SDS011;36257;46.052;12.540;2023-02-28T01:35:42;9.57;;;8.07;;
40931;SDS011;36257;46.052;12.540;2023-02-28T01:38:07;10.70;;;9.30;;
40931;SDS011;36257;46.052;12.540;2023-02-28T01:40:33;8.97;;;7.73;;
40931;SDS011;36257;46.052;12.540;2023-02-28T01:42:59;10.30;;;9.37;;
40931;SDS011;36257;46.052;12.540;2023-02-28T01:47:50;9.80;;;8.77;;
40931;SDS011;36257;46.052;12.540;2023-02-28T01:50:22;9.03;;;8.23;;
40931;SDS011;36257;46.052;12.540;2023-02-28T01:52:50;9.87;;;8.87;;
40931;SDS011;36257;46.052;12.540;2023-02-28T01:55:19;9.23;;;8.33;;
40931;SDS011;36257;46.052;12.540;2023-02-28T02:00:17;9.70;;;8.67;;
40931;SDS011;36257;46.052;12.540;2023-02-28T02:02:47;8.57;;;7.87;;
40931;SDS011;36257;46.052;12.540;2023-02-28T02:05:17;9.27;;;8.40;;
40931;SDS011;36257;46.052;12.540;2023-02-28T02:07:48;9.53;;;8.63;;
40931;SDS011;36257;46.052;12.540;2023-02-28T02:10:21;9.63;;;8.70;;
40931;SDS011;36257;46.052;12.540;2023-02-28T02:24:31;9.20;;;8.40;;
40931;SDS011;36257;46.052;12.540;2023-02-28T02:37:49;9.23;;;8.50;;
40931;SDS011;36257;46.052;12.540;2023-02-28T02:42:51;8.57;;;7.77;;
40931;SDS011;36257;46.052;12.540;2023-02-28T02:45:31;8.40;;;7.60;;
40931;SDS011;36257;46.052;12.540;2023-02-28T02:48:02;8.50;;;7.80;;
40931;SDS011;36257;46.052;12.540;2023-02-28T02:50:34;8.87;;;8.07;;
40931;SDS011;36257;46.052;12.540;2023-02-28T02:53:03;8.30;;;7.70;;
40931;SDS011;36257;46.052;12.540;2023-02-28T02:55:31;8.50;;;7.60;;
40931;SDS011;36257;46.052;12.540;2023-02-28T02:58:04;10.20;;;9.40;;
40931;SDS011;36257;46.052;12.540;2023-02-28T03:00:34;10.10;;;9.17;;
40931;SDS011;36257;46.052;12.540;2023-02-28T03:03:04;9.97;;;8.97;;
40931;SDS011;36257;46.052;12.540;2023-02-28T03:05:45;9.68;;;8.88;;
40931;SDS011;36257;46.052;12.540;2023-02-28T03:08:15;9.37;;;8.57;;
40931;SDS011;36257;46.052;12.540;2023-02-28T03:10:42;9.43;;;8.53;;
40931;SDS011;36257;46.052;12.540;2023-02-28T03:19:05;8.97;;;8.27;;
40931;SDS011;36257;46.052;12.540;2023-02-28T03:25:07;8.73;;;8.03;;
40931;SDS011;36257;46.052;12.540;2023-02-28T03:30:47;8.87;;;7.97;;
40931;SDS011;36257;46.052;12.540;2023-02-28T03:33:20;9.00;;;8.20;;
40931;SDS011;36257;46.052;12.540;2023-02-28T03:35:53;8.90;;;8.20;;
40931;SDS011;36257;46.052;12.540;2023-02-28T03:39:09;7.83;;;7.23;;
40931;SDS011;36257;46.052;12.540;2023-02-28T03:41:19;9.30;;;8.50;;
40931;SDS011;36257;46.052;12.540;2023-02-28T03:43:53;8.27;;;7.57;;
40931;SDS011;36257;46.052;12.540;2023-02-28T03:46:24;8.27;;;7.57;;
40931;SDS011;36257;46.052;12.540;2023-02-28T03:48:56;9.20;;;8.40;;
40931;SDS011;36257;46.052;12.540;2023-02-28T03:51:27;9.23;;;8.33;;
40931;SDS011;36257;46.052;12.540;2023-02-28T03:53:56;10.02;;;8.40;;
40931;SDS011;36257;46.052;12.540;2023-02-28T04:01:32;9.07;;;8.27;;
40931;SDS011;36257;46.052;12.540;2023-02-28T04:04:11;9.23;;;8.37;;
40931;SDS011;36257;46.052;12.540;2023-02-28T04:06:38;8.53;;;7.70;;
40931;SDS011;36257;46.052;12.540;2023-02-28T04:09:04;8.60;;;7.80;;
40931;SDS011;36257;46.052;12.540;2023-02-28T04:14:16;10.17;;;9.27;;
40931;SDS011;36257;46.052;12.540;2023-02-28T04:16:42;9.63;;;8.83;;
40931;SDS011;36257;46.052;12.540;2023-02-28T04:19:09;10.10;;;8.07;;
40931;SDS011;36257;46.052;12.540;2023-02-28T04:21:37;10.03;;;9.03;;
40931;SDS011;36257;46.052;12.540;2023-02-28T04:24:05;9.47;;;8.50;;
40931;SDS011;36257;46.052;12.540;2023-02-28T04:26:33;9.67;;;8.80;;
40931;SDS011;36257;46.052;12.540;2023-02-28T04:31:26;9.47;;;8.57;;
40931;SDS011;36257;46.052;12.540;2023-02-28T04:33:52;10.47;;;9.57;;
40931;SDS011;36257;46.052;12.540;2023-02-28T04:36:18;8.50;;;7.80;;
40931;SDS011;36257;46.052;12.540;2023-02-28T04:38:44;9.47;;;8.53;;
40931;SDS011;36257;46.052;12.540;2023-02-28T04:41:10;9.53;;;8.70;;
40931;SDS011;36257;46.052;12.540;2023-02-28T04:43:37;12.37;;;9.77;;
40931;SDS011;36257;46.052;12.540;2023-02-28T04:46:03;9.97;;;8.97;;
40931;SDS011;36257;46.052;12.540;2023-02-28T04:48:31;8.65;;;7.95;;
40931;SDS011;36257;46.052;12.540;2023-02-28T04:51:02;8.43;;;7.17;;
40931;SDS011;36257;46.052;12.540;2023-02-28T04:53:29;11.90;;;7.93;;
40931;SDS011;36257;46.052;12.540;2023-02-28T04:55:55;9.30;;;7.50;;
40931;SDS011;36257;46.052;12.540;2023-02-28T04:58:21;8.10;;;7.38;;
40931;SDS011;36257;46.052;12.540;2023-02-28T05:00:50;7.47;;;6.97;;
40931;SDS011;36257;46.052;12.540;2023-02-28T05:03:16;8.90;;;8.10;;
40931;SDS011;36257;46.052;12.540;2023-02-28T05:05:42;7.37;;;6.73;;
40931;SDS011;36257;46.052;12.540;2023-02-28T05:08:08;7.70;;;7.10;;
40931;SDS011;36257;46.052;12.540;2023-02-28T05:10:34;8.13;;;7.40;;
40931;SDS011;36257;46.052;12.540;2023-02-28T05:13:00;8.50;;;7.70;;
40931;SDS011;36257;46.052;12.540;2023-02-28T05:15:26;9.77;;;8.33;;
40931;SDS011;36257;46.052;12.540;2023-02-28T05:17:51;8.37;;;7.77;;
40931;SDS011;36257;46.052;12.540;2023-02-28T05:20:17;9.30;;;8.47;;
40931;SDS011;36257;46.052;12.540;2023-02-28T05:22:43;9.20;;;8.00;;
40931;SDS011;36257;46.052;12.540;2023-02-28T05:25:13;9.70;;;8.60;;
40931;SDS011;36257;46.052;12.540;2023-02-28T05:27:43;11.40;;;9.37;;
40931;SDS011;36257;46.052;12.540;2023-02-28T05:30:10;10.97;;;9.17;;
40931;SDS011;36257;46.052;12.540;2023-02-28T05:32:37;8.60;;;7.70;;
40931;SDS011;36257;46.052;12.540;2023-02-28T05:35:03;8.23;;;7.63;;
40931;SDS011;36257;46.052;12.540;2023-02-28T05:37:30;9.63;;;8.43;;
40931;SDS011;36257;46.052;12.540;2023-02-28T05:39:55;7.37;;;6.77;;
40931;SDS011;36257;46.052;12.540;2023-02-28T05:42:21;8.57;;;7.83;;
40931;SDS011;36257;46.052;12.540;2023-02-28T05:44:46;8.47;;;7.73;;
40931;SDS011;36257;46.052;12.540;2023-02-28T05:47:12;9.23;;;8.47;;
40931;SDS011;36257;46.052;12.540;2023-02-28T05:49:40;8.50;;;7.80;;
40931;SDS011;36257;46.052;12.540;2023-02-28T05:52:06;8.37;;;7.60;;
40931;SDS011;36257;46.052;12.540;2023-02-28T05:54:32;8.90;;;8.30;;
40931;SDS011;36257;46.052;12.540;2023-02-28T05:56:58;8.40;;;7.70;;
40931;SDS011;36257;46.052;12.540;2023-02-28T05:59:23;8.63;;;7.97;;
40931;SDS011;36257;46.052;12.540;2023-02-28T06:01:49;9.60;;;8.70;;
40931;SDS011;36257;46.052;12.540;2023-02-28T06:04:16;9.03;;;8.13;;
40931;SDS011;36257;46.052;12.540;2023-02-28T06:06:47;8.27;;;7.53;;
40931;SDS011;36257;46.052;12.540;2023-02-28T06:09:14;9.43;;;8.73;;
40931;SDS011;36257;46.052;12.540;2023-02-28T06:11:40;9.50;;;8.50;;
40931;SDS011;36257;46.052;12.540;2023-02-28T06:14:06;8.63;;;7.93;;
40931;SDS011;36257;46.052;12.540;2023-02-28T06:16:33;8.30;;;7.50;;
40931;SDS011;36257;46.052;12.540;2023-02-28T06:19:00;9.20;;;8.23;;
40931;SDS011;36257;46.052;12.540;2023-02-28T06:21:28;9.00;;;8.13;;
40931;SDS011;36257;46.052;12.540;2023-02-28T06:23:54;9.57;;;8.80;;
40931;SDS011;36257;46.052;12.540;2023-02-28T06:26:21;10.50;;;9.65;;
40931;SDS011;36257;46.052;12.540;2023-02-28T06:28:46;10.73;;;9.83;;
40931;SDS011;36257;46.052;12.540;2023-02-28T06:31:13;10.37;;;9.53;;
40931;SDS011;36257;46.052;12.540;2023-02-28T06:33:41;9.80;;;8.90;;
40931;SDS011;36257;46.052;12.540;2023-02-28T06:36:08;8.45;;;7.85;;
40931;SDS011;36257;46.052;12.540;2023-02-28T06:38:35;9.00;;;8.20;;
40931;SDS011;36257;46.052;12.540;2023-02-28T06:41:01;9.13;;;8.23;;
40931;SDS011;36257;46.052;12.540;2023-02-28T06:43:28;13.40;;;12.23;;
40931;SDS011;36257;46.052;12.540;2023-02-28T06:45:56;14.10;;;12.80;;
40931;SDS011;36257;46.052;12.540;2023-02-28T06:48:23;11.67;;;10.67;;
40931;SDS011;36257;46.052;12.540;2023-02-28T06:50:49;9.63;;;8.73;;
40931;SDS011;36257;46.052;12.540;2023-02-28T06:53:15;8.67;;;7.97;;
40931;SDS011;36257;46.052;12.540;2023-02-28T06:55:40;9.27;;;8.37;;
40931;SDS011;36257;46.052;12.540;2023-02-28T06:58:06;9.17;;;7.73;;
40931;SDS011;36257;46.052;12.540;2023-02-28T07:00:42;12.63;;;10.50;;
40931;SDS011;36257;46.052;12.540;2023-02-28T07:03:09;10.27;;;8.87;;
40931;SDS011;36257;46.052;12.540;2023-02-28T07:05:35;13.33;;;10.63;;
40931;SDS011;36257;46.052;12.540;2023-02-28T07:08:02;12.50;;;9.03;;
40931;SDS011;36257;46.052;12.540;2023-02-28T07:10:29;8.75;;;7.95;;
40931;SDS011;36257;46.052;12.540;2023-02-28T07:12:55;8.13;;;7.40;;
40931;SDS011;36257;46.052;12.540;2023-02-28T07:15:21;8.50;;;7.83;;
40931;SDS011;36257;46.052;12.540;2023-02-28T07:17:46;7.83;;;7.00;;
40931;SDS011;36257;46.052;12.540;2023-02-28T07:20:12;9.03;;;8.23;;
40931;SDS011;36257;46.052;12.540;2023-02-28T07:22:38;9.13;;;8.27;;
40931;SDS011;36257;46.052;12.540;2023-02-28T07:25:04;8.17;;;7.37;;
40931;SDS011;36257;46.052;12.540;2023-02-28T07:27:31;8.50;;;7.72;;
40931;SDS011;36257;46.052;12.540;2023-02-28T07:29:56;31.17;;;18.03;;
40931;SDS011;36257;46.052;12.540;2023-02-28T07:32:22;12.60;;;10.53;;
40931;SDS011;36257;46.052;12.540;2023-02-28T07:34:48;11.43;;;9.57;;
40931;SDS011;36257;46.052;12.540;2023-02-28T07:37:14;9.40;;;8.40;;
40931;SDS011;36257;46.052;12.540;2023-02-28T07:39:40;8.07;;;7.27;;
40931;SDS011;36257;46.052;12.540;2023-02-28T07:42:08;8.10;;;7.40;;
40931;SDS011;36257;46.052;12.540;2023-02-28T07:44:36;15.60;;;10.27;;
40931;SDS011;36257;46.052;12.540;2023-02-28T07:47:06;9.43;;;8.63;;
40931;SDS011;36257;46.052;12.540;2023-02-28T07:49:38;7.77;;;6.97;;
40931;SDS011;36257;46.052;12.540;2023-02-28T07:52:07;8.53;;;7.73;;
40931;SDS011;36257;46.052;12.540;2023-02-28T07:54:33;8.53;;;7.67;;
40931;SDS011;36257;46.052;12.540;2023-02-28T07:56:59;10.53;;;8.03;;
40931;SDS011;36257;46.052;12.540;2023-02-28T07:59:24;8.10;;;7.30;;
40931;SDS011;36257;46.052;12.540;2023-02-28T08:01:50;8.88;;;7.57;;
40931;SDS011;36257;46.052;12.540;2023-02-28T08:04:17;8.65;;;7.50;;
40931;SDS011;36257;46.052;12.540;2023-02-28T08:06:43;8.38;;;7.15;;
40931;SDS011;36257;46.052;12.540;2023-02-28T08:09:09;7.35;;;6.75;;
40931;SDS011;36257;46.052;12.540;2023-02-28T08:11:35;7.60;;;6.82;;
40931;SDS011;36257;46.052;12.540;2023-02-28T08:14:01;7.63;;;6.93;;
40931;SDS011;36257;46.052;12.540;2023-02-28T08:16:27;7.00;;;6.30;;
40931;SDS011;36257;46.052;12.540;2023-02-28T08:18:52;7.57;;;6.65;;
40931;SDS011;36257;46.052;12.540;2023-02-28T08:21:19;8.88;;;6.80;;
40931;SDS011;36257;46.052;12.540;2023-02-28T08:23:48;7.67;;;6.47;;
40931;SDS011;36257;46.052;12.540;2023-02-28T08:26:16;6.97;;;6.38;;
40931;SDS011;36257;46.052;12.540;2023-02-28T08:28:42;12.23;;;7.28;;
40931;SDS011;36257;46.052;12.540;2023-02-28T08:31:10;7.88;;;7.03;;
40931;SDS011;36257;46.052;12.540;2023-02-28T08:33:38;8.43;;;6.13;;
40931;SDS011;36257;46.052;12.540;2023-02-28T08:36:05;7.15;;;6.22;;
40931;SDS011;36257;46.052;12.540;2023-02-28T08:38:31;7.15;;;6.45;;
40931;SDS011;36257;46.052;12.540;2023-02-28T08:40:57;6.50;;;5.90;;
40931;SDS011;36257;46.052;12.540;2023-02-28T08:43:28;7.35;;;5.68;;
40931;SDS011;36257;46.052;12.540;2023-02-28T08:45:54;6.75;;;6.15;;
40931;SDS011;36257;46.052;12.540;2023-02-28T08:48:27;6.68;;;6.00;;
40931;SDS011;36257;46.052;12.540;2023-02-28T08:50:55;7.10;;;6.38;;
40931;SDS011;36257;46.052;12.540;2023-02-28T08:53:20;6.15;;;5.55;;
40931;SDS011;36257;46.052;12.540;2023-02-28T08:55:46;6.57;;;5.93;;
40931;SDS011;36257;46.052;12.540;2023-02-28T08:58:12;6.85;;;6.15;;
40931;SDS011;36257;46.052;12.540;2023-02-28T09:00:37;9.00;;;6.43;;
40931;SDS011;36257;46.052;12.540;2023-02-28T09:03:03;8.23;;;6.57;;
40931;SDS011;36257;46.052;12.540;2023-02-28T09:05:28;7.70;;;6.10;;
40931;SDS011;36257;46.052;12.540;2023-02-28T09:07:54;8.30;;;6.93;;
40931;SDS011;36257;46.052;12.540;2023-02-28T09:10:20;8.00;;;6.93;;
40931;SDS011;36257;46.052;12.540;2023-02-28T09:12:46;8.15;;;6.28;;
40931;SDS011;36257;46.052;12.540;2023-02-28T09:15:12;7.15;;;5.43;;
40931;SDS011;36257;46.052;12.540;2023-02-28T09:17:37;10.07;;;6.55;;
40931;SDS011;36257;46.052;12.540;2023-02-28T09:20:04;8.05;;;5.85;;
40931;SDS011;36257;46.052;12.540;2023-02-28T09:22:30;8.00;;;6.60;;
40931;SDS011;36257;46.052;12.540;2023-02-28T09:24:56;8.57;;;6.75;;
40931;SDS011;36257;46.052;12.540;2023-02-28T09:27:21;9.23;;;6.40;;
40931;SDS011;36257;46.052;12.540;2023-02-28T09:29:47;9.05;;;7.15;;
40931;SDS011;36257;46.052;12.540;2023-02-28T09:32:13;9.02;;;7.63;;
40931;SDS011;36257;46.052;12.540;2023-02-28T09:34:38;9.02;;;6.13;;
40931;SDS011;36257;46.052;12.540;2023-02-28T09:37:04;8.38;;;6.22;;
40931;SDS011;36257;46.052;12.540;2023-02-28T09:39:30;12.35;;;7.22;;
40931;SDS011;36257;46.052;12.540;2023-02-28T09:41:56;9.40;;;6.43;;
40931;SDS011;36257;46.052;12.540;2023-02-28T09:44:31;6.90;;;5.95;;
40931;SDS011;36257;46.052;12.540;2023-02-28T09:47:14;8.73;;;6.55;;
40931;SDS011;36257;46.052;12.540;2023-02-28T09:49:49;7.22;;;6.07;;
40931;SDS011;36257;46.052;12.540;2023-02-28T09:52:19;8.35;;;6.80;;
40931;SDS011;36257;46.052;12.540;2023-02-28T09:54:48;8.88;;;6.22;;
40931;SDS011;36257;46.052;12.540;2023-02-28T09:59:49;6.75;;;6.05;;
40931;SDS011;36257;46.052;12.540;2023-02-28T10:05:30;10.50;;;7.30;;
40931;SDS011;36257;46.052;12.540;2023-02-28T10:08:16;9.25;;;6.32;;
40931;SDS011;36257;46.052;12.540;2023-02-28T10:11:00;8.45;;;6.53;;
40931;SDS011;36257;46.052;12.540;2023-02-28T10:16:32;11.50;;;7.68;;
40931;SDS011;36257;46.052;12.540;2023-02-28T10:24:48;7.75;;;6.68;;
40931;SDS011;36257;46.052;12.540;2023-02-28T10:29:55;8.55;;;6.32;;
40931;SDS011;36257;46.052;12.540;2023-02-28T10:37:37;10.00;;;7.70;;
40931;SDS011;36257;46.052;12.540;2023-02-28T10:45:37;12.15;;;7.22;;
40931;SDS011;36257;46.052;12.540;2023-02-28T10:50:52;7.93;;;5.80;;
40931;SDS011;36257;46.052;12.540;2023-02-28T10:58:26;10.68;;;7.28;;
40931;SDS011;36257;46.052;12.540;2023-02-28T11:00:55;37.85;;;9.65;;
40931;SDS011;36257;46.052;12.540;2023-02-28T11:03:32;9.15;;;6.15;;
40931;SDS011;36257;46.052;12.540;2023-02-28T11:06:03;9.65;;;6.72;;
40931;SDS011;36257;46.052;12.540;2023-02-28T11:08:43;6.47;;;5.80;;
40931;SDS011;36257;46.052;12.540;2023-02-28T11:11:17;6.97;;;5.75;;
40931;SDS011;36257;46.052;12.540;2023-02-28T11:13:44;9.80;;;6.63;;
40931;SDS011;36257;46.052;12.540;2023-02-28T11:16:16;14.07;;;7.43;;
40931;SDS011;36257;46.052;12.540;2023-02-28T11:18:44;23.20;;;7.43;;
40931;SDS011;36257;46.052;12.540;2023-02-28T11:21:21;9.35;;;6.57;;
40931;SDS011;36257;46.052;12.540;2023-02-28T11:23:51;7.72;;;6.47;;
40931;SDS011;36257;46.052;12.540;2023-02-28T11:26:35;15.57;;;6.38;;
40931;SDS011;36257;46.052;12.540;2023-02-28T11:29:09;8.68;;;6.38;;
40931;SDS011;36257;46.052;12.540;2023-02-28T11:32:31;7.53;;;6.75;;
40931;SDS011;36257;46.052;12.540;2023-02-28T11:34:44;12.60;;;6.90;;
40931;SDS011;36257;46.052;12.540;2023-02-28T11:37:18;8.32;;;6.53;;
40931;SDS011;36257;46.052;12.540;2023-02-28T11:39:44;9.57;;;7.22;;
40931;SDS011;36257;46.052;12.540;2023-02-28T11:44:49;9.63;;;6.57;;
40931;SDS011;36257;46.052;12.540;2023-02-28T11:47:33;9.88;;;7.03;;
40931;SDS011;36257;46.052;12.540;2023-02-28T11:52:52;8.25;;;7.15;;
40931;SDS011;36257;46.052;12.540;2023-02-28T11:55:31;8.90;;;7.20;;
40931;SDS011;36257;46.052;12.540;2023-02-28T12:14:50;8.45;;;7.57;;
40931;SDS011;36257;46.052;12.540;2023-02-28T12:28:43;8.60;;;7.05;;
40931;SDS011;36257;46.052;12.540;2023-02-28T12:34:06;9.77;;;6.90;;
40931;SDS011;36257;46.052;12.540;2023-02-28T12:36:37;9.15;;;7.22;;
40931;SDS011;36257;46.052;12.540;2023-02-28T12:41:51;8.93;;;6.97;;
40931;SDS011;36257;46.052;12.540;2023-02-28T12:44:29;10.77;;;7.28;;
40931;SDS011;36257;46.052;12.540;2023-02-28T12:47:00;10.60;;;7.18;;
40931;SDS011;36257;46.052;12.540;2023-02-28T12:49:31;9.68;;;8.48;;
40931;SDS011;36257;46.052;12.540;2023-02-28T12:52:02;11.93;;;8.20;;
40931;SDS011;36257;46.052;12.540;2023-02-28T12:57:25;9.02;;;6.85;;
40931;SDS011;36257;46.052;12.540;2023-02-28T13:00:18;11.95;;;7.28;;
40931;SDS011;36257;46.052;12.540;2023-02-28T13:02:53;9.25;;;7.03;;
40931;SDS011;36257;46.052;12.540;2023-02-28T13:10:40;10.40;;;7.10;;
40931;SDS011;36257;46.052;12.540;2023-02-28T13:13:14;9.45;;;7.25;;
40931;SDS011;36257;46.052;12.540;2023-02-28T13:15:56;13.60;;;6.68;;
40931;SDS011;36257;46.052;12.540;2023-02-28T13:20:58;9.88;;;7.15;;
40931;SDS011;36257;46.052;12.540;2023-02-28T13:26:03;9.77;;;7.65;;
40931;SDS011;36257;46.052;12.540;2023-02-28T13:31:13;8.20;;;6.80;;
40931;SDS011;36257;46.052;12.540;2023-02-28T13:38:52;14.32;;;8.25;;
40931;SDS011;36257;46.052;12.540;2023-02-28T13:52:29;8.52;;;7.38;;
40931;SDS011;36257;46.052;12.540;2023-02-28T14:03:06;10.98;;;7.38;;
40931;SDS011;36257;46.052;12.540;2023-02-28T14:05:39;10.10;;;7.22;;
40931;SDS011;36257;46.052;12.540;2023-02-28T14:08:06;12.38;;;8.52;;
40931;SDS011;36257;46.052;12.540;2023-02-28T14:18:17;7.88;;;6.40;;
40931;SDS011;36257;46.052;12.540;2023-02-28T14:20:58;9.30;;;7.00;;
40931;SDS011;36257;46.052;12.540;2023-02-28T14:32:02;11.40;;;7.40;;
40931;SDS011;36257;46.052;12.540;2023-02-28T14:37:15;10.45;;;6.60;;
40931;SDS011;36257;46.052;12.540;2023-02-28T14:39:48;9.38;;;6.25;;
40931;SDS011;36257;46.052;12.540;2023-02-28T14:42:29;11.50;;;6.95;;
40931;SDS011;36257;46.052;12.540;2023-02-28T14:44:58;10.32;;;6.82;;
40931;SDS011;36257;46.052;12.540;2023-02-28T14:47:25;8.13;;;6.45;;
40931;SDS011;36257;46.052;12.540;2023-02-28T14:49:58;9.13;;;6.57;;
40931;SDS011;36257;46.052;12.540;2023-02-28T14:52:26;9.07;;;7.57;;
40931;SDS011;36257;46.052;12.540;2023-02-28T14:54:55;13.50;;;7.07;;
40931;SDS011;36257;46.052;12.540;2023-02-28T14:57:40;10.18;;;6.75;;
40931;SDS011;36257;46.052;12.540;2023-02-28T15:00:21;9.95;;;6.97;;
40931;SDS011;36257;46.052;12.540;2023-02-28T15:02:48;9.70;;;6.45;;
40931;SDS011;36257;46.052;12.540;2023-02-28T15:07:45;11.35;;;7.00;;
40931;SDS011;36257;46.052;12.540;2023-02-28T15:10:20;11.15;;;6.65;;
40931;SDS011;36257;46.052;12.540;2023-02-28T15:12:51;7.95;;;6.78;;
40931;SDS011;36257;46.052;12.540;2023-02-28T15:15:19;11.27;;;7.30;;
40931;SDS011;36257;46.052;12.540;2023-02-28T15:17:46;8.85;;;6.97;;
40931;SDS011;36257;46.052;12.540;2023-02-28T15:20:16;8.70;;;7.18;;
40931;SDS011;36257;46.052;12.540;2023-02-28T15:22:43;11.37;;;6.70;;
40931;SDS011;36257;46.052;12.540;2023-02-28T15:25:11;11.93;;;7.43;;
40931;SDS011;36257;46.052;12.540;2023-02-28T15:27:44;8.88;;;7.22;;
40931;SDS011;36257;46.052;12.540;2023-02-28T15:30:17;10.45;;;6.68;;
40931;SDS011;36257;46.052;12.540;2023-02-28T15:33:15;10.98;;;7.20;;
40931;SDS011;36257;46.052;12.540;2023-02-28T15:38:15;15.65;;;7.30;;
40931;SDS011;36257;46.052;12.540;2023-02-28T15:51:07;9.68;;;7.45;;
40931;SDS011;36257;46.052;12.540;2023-02-28T15:53:39;11.25;;;8.70;;
40931;SDS011;36257;46.052;12.540;2023-02-28T15:56:27;10.57;;;7.82;;
40931;SDS011;36257;46.052;12.540;2023-02-28T15:58:58;12.45;;;7.88;;
40931;SDS011;36257;46.052;12.540;2023-02-28T16:01:30;15.23;;;8.38;;
40931;SDS011;36257;46.052;12.540;2023-02-28T16:04:10;12.85;;;7.97;;
40931;SDS011;36257;46.052;12.540;2023-02-28T16:06:43;9.23;;;6.93;;
40931;SDS011;36257;46.052;12.540;2023-02-28T16:09:14;8.98;;;7.22;;
40931;SDS011;36257;46.052;12.540;2023-02-28T16:11:45;11.27;;;7.35;;
40931;SDS011;36257;46.052;12.540;2023-02-28T16:14:25;10.77;;;8.20;;
40931;SDS011;36257;46.052;12.540;2023-02-28T16:16:53;16.40;;;7.32;;
40931;SDS011;36257;46.052;12.540;2023-02-28T16:19:21;8.93;;;7.57;;
40931;SDS011;36257;46.052;12.540;2023-02-28T16:21:47;9.85;;;7.47;;
40931;SDS011;36257;46.052;12.540;2023-02-28T16:24:13;9.63;;;7.93;;
40931;SDS011;36257;46.052;12.540;2023-02-28T16:26:42;10.20;;;8.13;;
40931;SDS011;36257;46.052;12.540;2023-02-28T16:32:01;11.90;;;8.05;;
40931;SDS011;36257;46.052;12.540;2023-02-28T16:34:29;8.85;;;6.68;;
40931;SDS011;36257;46.052;12.540;2023-02-28T16:36:54;11.80;;;8.13;;
40931;SDS011;36257;46.052;12.540;2023-02-28T16:39:20;9.98;;;7.30;;
40931;SDS011;36257;46.052;12.540;2023-02-28T16:41:45;9.45;;;8.40;;
40931;SDS011;36257;46.052;12.540;2023-02-28T16:44:17;9.57;;;6.85;;
40931;SDS011;36257;46.052;12.540;2023-02-28T16:46:51;10.63;;;8.27;;
40931;SDS011;36257;46.052;12.540;2023-02-28T16:49:17;10.88;;;8.50;;
40931;SDS011;36257;46.052;12.540;2023-02-28T16:51:43;11.60;;;8.98;;
40931;SDS011;36257;46.052;12.540;2023-02-28T16:54:08;9.63;;;8.00;;
40931;SDS011;36257;46.052;12.540;2023-02-28T16:56:34;8.98;;;8.07;;
40931;SDS011;36257;46.052;12.540;2023-02-28T16:59:00;9.80;;;8.32;;
40931;SDS011;36257;46.052;12.540;2023-02-28T17:01:27;8.10;;;7.05;;
40931;SDS011;36257;46.052;12.540;2023-02-28T17:03:53;11.90;;;7.70;;
40931;SDS011;36257;46.052;12.540;2023-02-28T17:06:21;11.05;;;7.63;;
40931;SDS011;36257;46.052;12.540;2023-02-28T17:08:51;9.32;;;8.32;;
40931;SDS011;36257;46.052;12.540;2023-02-28T17:11:17;9.27;;;7.70;;
40931;SDS011;36257;46.052;12.540;2023-02-28T17:13:44;10.23;;;8.48;;
40931;SDS011;36257;46.052;12.540;2023-02-28T17:16:21;8.65;;;7.75;;
40931;SDS011;36257;46.052;12.540;2023-02-28T17:18:57;9.77;;;7.40;;
40931;SDS011;36257;46.052;12.540;2023-02-28T17:21:24;10.55;;;9.18;;
40931;SDS011;36257;46.052;12.540;2023-02-28T17:23:50;15.05;;;8.52;;
40931;SDS011;36257;46.052;12.540;2023-02-28T17:26:17;12.82;;;8.38;;
40931;SDS011;36257;46.052;12.540;2023-02-28T17:28:49;8.93;;;8.02;;
40931;SDS011;36257;46.052;12.540;2023-02-28T17:31:16;10.32;;;7.80;;
40931;SDS011;36257;46.052;12.540;2023-02-28T17:33:42;12.98;;;10.07;;
40931;SDS011;36257;46.052;12.540;2023-02-28T17:36:20;20.42;;;13.68;;
40931;SDS011;36257;46.052;12.540;2023-02-28T17:38:49;20.33;;;13.82;;
40931;SDS011;36257;46.052;12.540;2023-02-28T17:41:15;16.40;;;12.50;;
40931;SDS011;36257;46.052;12.540;2023-02-28T17:43:40;20.40;;;13.17;;
40931;SDS011;36257;46.052;12.540;2023-02-28T17:46:10;28.07;;;14.77;;
40931;SDS011;36257;46.052;12.540;2023-02-28T17:48:40;30.60;;;20.47;;
40931;SDS011;36257;46.052;12.540;2023-02-28T17:51:06;24.87;;;17.00;;
40931;SDS011;36257;46.052;12.540;2023-02-28T17:53:33;18.73;;;13.32;;
40931;SDS011;36257;46.052;12.540;2023-02-28T17:55:59;16.83;;;13.10;;
40931;SDS011;36257;46.052;12.540;2023-02-28T17:58:24;17.27;;;13.57;;
40931;SDS011;36257;46.052;12.540;2023-02-28T18:00:50;15.57;;;11.87;;
40931;SDS011;36257;46.052;12.540;2023-02-28T18:03:18;11.53;;;10.30;;
40931;SDS011;36257;46.052;12.540;2023-02-28T18:05:45;10.90;;;9.60;;